sensor_id;sensor_type;location;lat;lon;timestamp;pressure;altitude;pressure_sealevel;temperature;humidity
22333;BME280;11334;36.986;-121.936;2024-02-26T00:00:43;101229.41;;;17.64;77.96
22333;BME280;11334;36.986;-121.936;2024-02-26T00:03:12;101225.63;;;17.58;78.23
22333;BME280;11334;36.986;-121.936;2024-02-26T00:05:38;101228.31;;;17.58;78.72
22333;BME280;11334;36.986;-121.936;2024-02-26T00:08:05;101222.97;;;17.58;79.06
22333;BME280;11334;36.986;-121.936;2024-02-26T00:10:31;101239.44;;;17.55;79.95
22333;BME280;11334;36.986;-121.936;2024-02-26T00:12:57;101234.88;;;17.56;80.13
22333;BME280;11334;36.986;-121.936;2024-02-26T00:15:23;101242.28;;;17.54;80.29
22333;BME280;11334;36.986;-121.936;2024-02-26T00:17:50;101233.41;;;17.53;80.83
22333;BME280;11334;36.986;-121.936;2024-02-26T00:20:17;101238.59;;;17.55;80.48
22333;BME280;11334;36.986;-121.936;2024-02-26T00:22:43;101242.28;;;17.54;80.39
22333;BME280;11334;36.986;-121.936;2024-02-26T00:25:09;101244.88;;;17.62;80.38
22333;BME280;11334;36.986;-121.936;2024-02-26T00:27:35;101241.38;;;17.82;79.78
22333;BME280;11334;36.986;-121.936;2024-02-26T00:30:01;101246.09;;;18.01;78.59
22333;BME280;11334;36.986;-121.936;2024-02-26T00:32:27;101243.56;;;18.13;77.97
22333;BME280;11334;36.986;-121.936;2024-02-26T00:34:54;101239.09;;;18.20;77.10
22333;BME280;11334;36.986;-121.936;2024-02-26T00:37:20;101238.69;;;18.23;76.94
22333;BME280;11334;36.986;-121.936;2024-02-26T00:39:46;101238.56;;;18.31;76.41
22333;BME280;11334;36.986;-121.936;2024-02-26T00:42:13;101242.50;;;18.35;74.39
22333;BME280;11334;36.986;-121.936;2024-02-26T00:44:39;101257.16;;;18.33;74.23
22333;BME280;11334;36.986;-121.936;2024-02-26T00:47:05;101266.81;;;18.27;74.20
22333;BME280;11334;36.986;-121.936;2024-02-26T00:49:32;101263.47;;;18.25;74.89
22333;BME280;11334;36.986;-121.936;2024-02-26T00:51:58;101265.72;;;18.22;75.92
22333;BME280;11334;36.986;-121.936;2024-02-26T00:54:24;101272.56;;;18.24;75.69
22333;BME280;11334;36.986;-121.936;2024-02-26T00:56:50;101267.59;;;18.21;75.51
22333;BME280;11334;36.986;-121.936;2024-02-26T00:59:16;101271.84;;;18.16;76.47
22333;BME280;11334;36.986;-121.936;2024-02-26T01:01:42;101270.75;;;18.10;76.28
22333;BME280;11334;36.986;-121.936;2024-02-26T01:04:09;101270.03;;;18.02;76.77
22333;BME280;11334;36.986;-121.936;2024-02-26T01:06:35;101267.09;;;17.97;77.10
22333;BME280;11334;36.986;-121.936;2024-02-26T01:09:01;101269.06;;;17.89;77.60
22333;BME280;11334;36.986;-121.936;2024-02-26T01:11:27;101269.56;;;17.78;78.13
22333;BME280;11334;36.986;-121.936;2024-02-26T01:13:53;101275.44;;;17.67;78.87
22333;BME280;11334;36.986;-121.936;2024-02-26T01:16:23;101281.75;;;17.60;78.99
22333;BME280;11334;36.986;-121.936;2024-02-26T01:18:49;101291.56;;;17.53;79.31
22333;BME280;11334;36.986;-121.936;2024-02-26T01:21:15;101287.56;;;17.49;80.05
22333;BME280;11334;36.986;-121.936;2024-02-26T01:23:42;101281.50;;;17.40;80.21
22333;BME280;11334;36.986;-121.936;2024-02-26T01:26:08;101285.09;;;17.33;81.19
22333;BME280;11334;36.986;-121.936;2024-02-26T01:28:34;101290.19;;;17.28;81.74
22333;BME280;11334;36.986;-121.936;2024-02-26T01:31:00;101296.84;;;17.18;82.03
22333;BME280;11334;36.986;-121.936;2024-02-26T01:33:27;101295.75;;;17.12;82.80
22333;BME280;11334;36.986;-121.936;2024-02-26T01:35:53;101296.28;;;17.08;83.46
22333;BME280;11334;36.986;-121.936;2024-02-26T01:38:19;101294.50;;;17.01;83.64
22333;BME280;11334;36.986;-121.936;2024-02-26T01:40:45;101296.91;;;16.96;83.96
22333;BME280;11334;36.986;-121.936;2024-02-26T01:43:11;101307.25;;;16.99;83.84
22333;BME280;11334;36.986;-121.936;2024-02-26T01:45:38;101307.72;;;16.88;84.28
22333;BME280;11334;36.986;-121.936;2024-02-26T01:48:04;101307.59;;;16.81;85.45
22333;BME280;11334;36.986;-121.936;2024-02-26T01:50:31;101308.97;;;16.77;85.70
22333;BME280;11334;36.986;-121.936;2024-02-26T01:52:57;101310.06;;;16.69;86.16
22333;BME280;11334;36.986;-121.936;2024-02-26T01:55:24;101321.50;;;16.63;86.75
22333;BME280;11334;36.986;-121.936;2024-02-26T01:57:52;101317.53;;;16.59;86.91
22333;BME280;11334;36.986;-121.936;2024-02-26T02:00:20;101318.88;;;16.55;87.59
22333;BME280;11334;36.986;-121.936;2024-02-26T02:02:47;101311.41;;;16.50;87.43
22333;BME280;11334;36.986;-121.936;2024-02-26T02:05:17;101323.50;;;16.46;87.80
22333;BME280;11334;36.986;-121.936;2024-02-26T02:07:45;101321.06;;;16.37;88.39
22333;BME280;11334;36.986;-121.936;2024-02-26T02:10:15;101323.44;;;16.32;88.47
22333;BME280;11334;36.986;-121.936;2024-02-26T02:12:43;101323.44;;;16.32;88.79
22333;BME280;11334;36.986;-121.936;2024-02-26T02:15:09;101323.34;;;16.26;89.02
22333;BME280;11334;36.986;-121.936;2024-02-26T02:17:36;101318.31;;;16.23;89.66
22333;BME280;11334;36.986;-121.936;2024-02-26T02:20:02;101315.66;;;16.23;89.98
22333;BME280;11334;36.986;-121.936;2024-02-26T02:22:29;101316.53;;;16.15;90.94
22333;BME280;11334;36.986;-121.936;2024-02-26T02:24:57;101322.44;;;16.03;91.33
22333;BME280;11334;36.986;-121.936;2024-02-26T02:27:24;101320.19;;;15.92;92.46
22333;BME280;11334;36.986;-121.936;2024-02-26T02:29:51;101323.22;;;15.89;92.57
22333;BME280;11334;36.986;-121.936;2024-02-26T02:32:18;101322.72;;;15.86;92.85
22333;BME280;11334;36.986;-121.936;2024-02-26T02:34:45;101324.03;;;15.90;93.01
22333;BME280;11334;36.986;-121.936;2024-02-26T02:37:12;101333.97;;;15.81;93.53
22333;BME280;11334;36.986;-121.936;2024-02-26T02:39:38;101328.31;;;15.77;93.71
22333;BME280;11334;36.986;-121.936;2024-02-26T02:42:05;101328.84;;;15.72;94.05
22333;BME280;11334;36.986;-121.936;2024-02-26T02:44:31;101328.84;;;15.72;94.54
22333;BME280;11334;36.986;-121.936;2024-02-26T02:46:57;101333.19;;;15.65;94.66
22333;BME280;11334;36.986;-121.936;2024-02-26T02:49:24;101322.88;;;15.62;94.58
22333;BME280;11334;36.986;-121.936;2024-02-26T02:51:50;101325.53;;;15.62;94.73
22333;BME280;11334;36.986;-121.936;2024-02-26T02:54:16;101321.91;;;15.55;94.67
22333;BME280;11334;36.986;-121.936;2024-02-26T02:56:42;101320.25;;;15.54;94.18
22333;BME280;11334;36.986;-121.936;2024-02-26T02:59:09;101330.44;;;15.51;93.99
22333;BME280;11334;36.986;-121.936;2024-02-26T03:01:35;101325.47;;;15.40;94.69
22333;BME280;11334;36.986;-121.936;2024-02-26T03:04:01;101316.97;;;15.37;94.49
22333;BME280;11334;36.986;-121.936;2024-02-26T03:06:27;101324.03;;;15.30;94.80
22333;BME280;11334;36.986;-121.936;2024-02-26T03:08:54;101322.53;;;15.27;95.00
22333;BME280;11334;36.986;-121.936;2024-02-26T03:11:21;101320.19;;;15.24;94.73
22333;BME280;11334;36.986;-121.936;2024-02-26T03:13:47;101329.72;;;15.19;94.45
22333;BME280;11334;36.986;-121.936;2024-02-26T03:16:13;101325.25;;;15.12;94.83
22333;BME280;11334;36.986;-121.936;2024-02-26T03:18:39;101324.25;;;15.05;94.93
22333;BME280;11334;36.986;-121.936;2024-02-26T03:21:06;101320.41;;;14.99;95.20
22333;BME280;11334;36.986;-121.936;2024-02-26T03:23:32;101326.75;;;14.98;95.18
22333;BME280;11334;36.986;-121.936;2024-02-26T03:26:05;101325.09;;;14.89;95.28
22333;BME280;11334;36.986;-121.936;2024-02-26T03:28:31;101327.28;;;14.86;95.20
22333;BME280;11334;36.986;-121.936;2024-02-26T03:31:01;101328.09;;;14.86;95.47
22333;BME280;11334;36.986;-121.936;2024-02-26T03:33:28;101319.28;;;14.78;95.35
22333;BME280;11334;36.986;-121.936;2024-02-26T03:35:54;101325.16;;;14.66;96.70
22333;BME280;11334;36.986;-121.936;2024-02-26T03:38:20;101324.97;;;14.67;96.20
22333;BME280;11334;36.986;-121.936;2024-02-26T03:40:46;101326.13;;;14.65;96.05
22333;BME280;11334;36.986;-121.936;2024-02-26T03:43:12;101331.47;;;14.65;95.94
22333;BME280;11334;36.986;-121.936;2024-02-26T03:45:39;101328.81;;;14.57;95.78
22333;BME280;11334;36.986;-121.936;2024-02-26T03:48:05;101326.97;;;14.50;96.43
22333;BME280;11334;36.986;-121.936;2024-02-26T03:50:32;101337.16;;;14.46;96.63
22333;BME280;11334;36.986;-121.936;2024-02-26T03:52:58;101335.16;;;14.48;96.71
22333;BME280;11334;36.986;-121.936;2024-02-26T03:55:25;101338.31;;;14.44;96.58
22333;BME280;11334;36.986;-121.936;2024-02-26T03:57:52;101337.66;;;14.42;96.55
22333;BME280;11334;36.986;-121.936;2024-02-26T04:00:19;101339.31;;;14.35;96.68
22333;BME280;11334;36.986;-121.936;2024-02-26T04:02:47;101343.00;;;14.34;96.68
22333;BME280;11334;36.986;-121.936;2024-02-26T04:05:13;101343.16;;;14.32;96.89
22333;BME280;11334;36.986;-121.936;2024-02-26T04:07:40;101348.47;;;14.32;96.69
22333;BME280;11334;36.986;-121.936;2024-02-26T04:10:10;101353.47;;;14.27;96.23
22333;BME280;11334;36.986;-121.936;2024-02-26T04:12:41;101346.28;;;14.20;96.04
22333;BME280;11334;36.986;-121.936;2024-02-26T04:15:08;101357.97;;;14.19;95.64
22333;BME280;11334;36.986;-121.936;2024-02-26T04:17:36;101359.78;;;14.11;96.15
22333;BME280;11334;36.986;-121.936;2024-02-26T04:20:06;101355.78;;;14.07;96.64
22333;BME280;11334;36.986;-121.936;2024-02-26T04:22:32;101365.41;;;14.00;96.93
22333;BME280;11334;36.986;-121.936;2024-02-26T04:24:59;101374.09;;;14.02;97.02
22333;BME280;11334;36.986;-121.936;2024-02-26T04:27:25;101375.84;;;13.93;97.30
22333;BME280;11334;36.986;-121.936;2024-02-26T04:29:51;101381.72;;;13.97;97.46
22333;BME280;11334;36.986;-121.936;2024-02-26T04:32:17;101386.75;;;14.00;96.57
22333;BME280;11334;36.986;-121.936;2024-02-26T04:34:44;101381.03;;;13.95;96.73
22333;BME280;11334;36.986;-121.936;2024-02-26T04:37:10;101381.50;;;13.90;96.35
22333;BME280;11334;36.986;-121.936;2024-02-26T04:39:36;101384.34;;;13.81;97.27
22333;BME280;11334;36.986;-121.936;2024-02-26T04:42:02;101393.31;;;13.80;97.11
22333;BME280;11334;36.986;-121.936;2024-02-26T04:44:29;101386.31;;;13.79;97.42
22333;BME280;11334;36.986;-121.936;2024-02-26T04:46:56;101386.47;;;13.78;97.23
22333;BME280;11334;36.986;-121.936;2024-02-26T04:49:22;101384.47;;;13.72;97.18
22333;BME280;11334;36.986;-121.936;2024-02-26T04:51:48;101399.44;;;13.73;97.21
22333;BME280;11334;36.986;-121.936;2024-02-26T04:54:15;101397.78;;;13.72;96.79
22333;BME280;11334;36.986;-121.936;2024-02-26T04:56:41;101404.25;;;13.69;96.50
22333;BME280;11334;36.986;-121.936;2024-02-26T04:59:07;101395.25;;;13.62;97.22
22333;BME280;11334;36.986;-121.936;2024-02-26T05:01:33;101410.88;;;13.65;97.91
22333;BME280;11334;36.986;-121.936;2024-02-26T05:04:00;101418.19;;;13.63;98.05
22333;BME280;11334;36.986;-121.936;2024-02-26T05:06:26;101418.38;;;13.62;97.77
22333;BME280;11334;36.986;-121.936;2024-02-26T05:08:52;101422.50;;;13.57;97.78
22333;BME280;11334;36.986;-121.936;2024-02-26T05:11:18;101421.94;;;13.45;98.24
22333;BME280;11334;36.986;-121.936;2024-02-26T05:13:44;101434.75;;;13.42;99.01
22333;BME280;11334;36.986;-121.936;2024-02-26T05:16:11;101433.88;;;13.41;98.96
22333;BME280;11334;36.986;-121.936;2024-02-26T05:18:37;101436.56;;;13.41;98.43
22333;BME280;11334;36.986;-121.936;2024-02-26T05:21:03;101439.22;;;13.41;98.61
22333;BME280;11334;36.986;-121.936;2024-02-26T05:23:30;101458.34;;;13.37;98.27
22333;BME280;11334;36.986;-121.936;2024-02-26T05:25:56;101449.00;;;13.33;98.46
22333;BME280;11334;36.986;-121.936;2024-02-26T05:28:22;101448.47;;;13.29;98.86
22333;BME280;11334;36.986;-121.936;2024-02-26T05:30:48;101448.56;;;13.20;99.79
22333;BME280;11334;36.986;-121.936;2024-02-26T05:33:15;101450.56;;;13.18;99.96
22333;BME280;11334;36.986;-121.936;2024-02-26T05:35:41;101450.69;;;13.17;100.00
22333;BME280;11334;36.986;-121.936;2024-02-26T05:38:07;101443.84;;;13.14;99.65
22333;BME280;11334;36.986;-121.936;2024-02-26T05:40:33;101445.56;;;13.15;99.81
22333;BME280;11334;36.986;-121.936;2024-02-26T05:42:59;101443.22;;;13.12;100.00
22333;BME280;11334;36.986;-121.936;2024-02-26T05:45:26;101451.84;;;13.14;99.75
22333;BME280;11334;36.986;-121.936;2024-02-26T05:47:52;101458.16;;;13.13;99.84
22333;BME280;11334;36.986;-121.936;2024-02-26T05:50:18;101450.13;;;13.05;99.54
22333;BME280;11334;36.986;-121.936;2024-02-26T05:52:45;101450.97;;;13.06;99.56
22333;BME280;11334;36.986;-121.936;2024-02-26T05:55:11;101447.97;;;13.09;99.62
22333;BME280;11334;36.986;-121.936;2024-02-26T05:57:38;101449.91;;;12.99;99.72
22333;BME280;11334;36.986;-121.936;2024-02-26T06:00:05;101447.94;;;13.01;99.86
22333;BME280;11334;36.986;-121.936;2024-02-26T06:02:31;101453.72;;;12.96;100.00
22333;BME280;11334;36.986;-121.936;2024-02-26T06:04:58;101454.03;;;12.94;100.00
22333;BME280;11334;36.986;-121.936;2024-02-26T06:07:24;101459.72;;;12.98;99.19
22333;BME280;11334;36.986;-121.936;2024-02-26T06:09:50;101450.31;;;12.87;100.00
22333;BME280;11334;36.986;-121.936;2024-02-26T06:12:17;101451.13;;;12.87;100.00
22333;BME280;11334;36.986;-121.936;2024-02-26T06:14:43;101458.44;;;12.85;99.66
22333;BME280;11334;36.986;-121.936;2024-02-26T06:17:09;101448.41;;;12.79;100.00
22333;BME280;11334;36.986;-121.936;2024-02-26T06:19:35;101444.22;;;12.77;100.00
22333;BME280;11334;36.986;-121.936;2024-02-26T06:22:02;101444.50;;;12.74;100.00
22333;BME280;11334;36.986;-121.936;2024-02-26T06:24:28;101454.88;;;12.77;100.00
22333;BME280;11334;36.986;-121.936;2024-02-26T06:26:54;101448.84;;;12.75;100.00
22333;BME280;11334;36.986;-121.936;2024-02-26T06:29:20;101452.50;;;12.74;100.00
22333;BME280;11334;36.986;-121.936;2024-02-26T06:31:46;101444.81;;;12.71;100.00
22333;BME280;11334;36.986;-121.936;2024-02-26T06:34:14;101452.13;;;12.69;100.00
22333;BME280;11334;36.986;-121.936;2024-02-26T06:36:40;101447.25;;;12.64;100.00
22333;BME280;11334;36.986;-121.936;2024-02-26T06:39:06;101446.56;;;12.62;100.00
22333;BME280;11334;36.986;-121.936;2024-02-26T06:41:34;101443.06;;;12.62;100.00
22333;BME280;11334;36.986;-121.936;2024-02-26T06:44:00;101438.00;;;12.51;100.00
22333;BME280;11334;36.986;-121.936;2024-02-26T06:46:26;101447.94;;;12.49;100.00
22333;BME280;11334;36.986;-121.936;2024-02-26T06:48:54;101453.81;;;12.53;100.00
22333;BME280;11334;36.986;-121.936;2024-02-26T06:51:20;101458.44;;;12.51;100.00
22333;BME280;11334;36.986;-121.936;2024-02-26T06:53:46;101457.88;;;12.47;100.00
22333;BME280;11334;36.986;-121.936;2024-02-26T06:56:13;101454.84;;;12.42;100.00
22333;BME280;11334;36.986;-121.936;2024-02-26T06:58:39;101459.03;;;12.45;100.00
22333;BME280;11334;36.986;-121.936;2024-02-26T07:01:05;101457.34;;;12.44;100.00
22333;BME280;11334;36.986;-121.936;2024-02-26T07:03:34;101455.09;;;12.49;100.00
22333;BME280;11334;36.986;-121.936;2024-02-26T07:06:00;101452.19;;;12.42;100.00
22333;BME280;11334;36.986;-121.936;2024-02-26T07:08:26;101462.97;;;12.41;100.00
22333;BME280;11334;36.986;-121.936;2024-02-26T07:10:53;101461.53;;;12.46;100.00
22333;BME280;11334;36.986;-121.936;2024-02-26T07:13:19;101450.91;;;12.46;100.00
22333;BME280;11334;36.986;-121.936;2024-02-26T07:15:46;101447.72;;;12.43;100.00
22333;BME280;11334;36.986;-121.936;2024-02-26T07:18:12;101453.03;;;12.43;100.00
22333;BME280;11334;36.986;-121.936;2024-02-26T07:20:39;101444.91;;;12.44;100.00
22333;BME280;11334;36.986;-121.936;2024-02-26T07:23:05;101445.34;;;12.40;100.00
22333;BME280;11334;36.986;-121.936;2024-02-26T07:25:32;101442.88;;;12.38;100.00
22333;BME280;11334;36.986;-121.936;2024-02-26T07:27:58;101441.34;;;12.36;100.00
22333;BME280;11334;36.986;-121.936;2024-02-26T07:30:24;101437.69;;;12.37;100.00
22333;BME280;11334;36.986;-121.936;2024-02-26T07:32:51;101445.34;;;12.40;100.00
22333;BME280;11334;36.986;-121.936;2024-02-26T07:35:17;101440.03;;;12.40;100.00
22333;BME280;11334;36.986;-121.936;2024-02-26T07:37:43;101438.38;;;12.39;100.00
22333;BME280;11334;36.986;-121.936;2024-02-26T07:40:10;101443.56;;;12.40;100.00
22333;BME280;11334;36.986;-121.936;2024-02-26T07:42:36;101432.06;;;12.40;100.00
22333;BME280;11334;36.986;-121.936;2024-02-26T07:45:02;101440.72;;;12.42;100.00
22333;BME280;11334;36.986;-121.936;2024-02-26T07:47:29;101440.91;;;12.40;100.00
22333;BME280;11334;36.986;-121.936;2024-02-26T07:49:55;101435.09;;;12.45;100.00
22333;BME280;11334;36.986;-121.936;2024-02-26T07:52:21;101429.66;;;12.46;100.00
22333;BME280;11334;36.986;-121.936;2024-02-26T07:54:48;101423.50;;;12.46;100.00
22333;BME280;11334;36.986;-121.936;2024-02-26T07:57:14;101439.75;;;12.43;100.00
22333;BME280;11334;36.986;-121.936;2024-02-26T07:59:43;101430.94;;;12.42;100.00
22333;BME280;11334;36.986;-121.936;2024-02-26T08:02:13;101433.19;;;12.37;100.00
22333;BME280;11334;36.986;-121.936;2024-02-26T08:04:39;101426.22;;;12.36;100.00
22333;BME280;11334;36.986;-121.936;2024-02-26T08:07:06;101429.88;;;12.35;100.00
22333;BME280;11334;36.986;-121.936;2024-02-26T08:09:32;101431.53;;;12.36;100.00
22333;BME280;11334;36.986;-121.936;2024-02-26T08:11:59;101431.69;;;12.35;100.00
22333;BME280;11334;36.986;-121.936;2024-02-26T08:14:25;101435.03;;;12.37;100.00
22333;BME280;11334;36.986;-121.936;2024-02-26T08:16:51;101431.41;;;12.38;100.00
22333;BME280;11334;36.986;-121.936;2024-02-26T08:19:17;101436.47;;;12.31;100.00
22333;BME280;11334;36.986;-121.936;2024-02-26T08:21:44;101425.16;;;12.30;100.00
22333;BME280;11334;36.986;-121.936;2024-02-26T08:24:10;101418.19;;;12.29;100.00
22333;BME280;11334;36.986;-121.936;2024-02-26T08:26:36;101426.97;;;12.29;100.00
22333;BME280;11334;36.986;-121.936;2024-02-26T08:29:03;101409.28;;;12.20;100.00
22333;BME280;11334;36.986;-121.936;2024-02-26T08:31:29;101408.00;;;12.24;100.00
22333;BME280;11334;36.986;-121.936;2024-02-26T08:33:56;101406.19;;;12.25;100.00
22333;BME280;11334;36.986;-121.936;2024-02-26T08:36:23;101404.53;;;12.24;100.00
22333;BME280;11334;36.986;-121.936;2024-02-26T08:38:49;101400.78;;;12.17;100.00
22333;BME280;11334;36.986;-121.936;2024-02-26T08:41:15;101405.41;;;12.15;100.00
22333;BME280;11334;36.986;-121.936;2024-02-26T08:43:41;101404.13;;;12.19;100.00
22333;BME280;11334;36.986;-121.936;2024-02-26T08:46:12;101401.22;;;12.12;100.00
22333;BME280;11334;36.986;-121.936;2024-02-26T08:48:39;101399.72;;;12.10;100.00
22333;BME280;11334;36.986;-121.936;2024-02-26T08:51:07;101400.72;;;12.09;100.00
22333;BME280;11334;36.986;-121.936;2024-02-26T08:53:33;101400.53;;;12.10;100.00
22333;BME280;11334;36.986;-121.936;2024-02-26T08:56:00;101390.66;;;12.03;100.00
22333;BME280;11334;36.986;-121.936;2024-02-26T08:58:27;101382.56;;;12.04;100.00
22333;BME280;11334;36.986;-121.936;2024-02-26T09:00:54;101389.69;;;12.04;100.00
22333;BME280;11334;36.986;-121.936;2024-02-26T09:03:21;101385.34;;;12.03;100.00
22333;BME280;11334;36.986;-121.936;2024-02-26T09:05:48;101389.16;;;12.00;100.00
22333;BME280;11334;36.986;-121.936;2024-02-26T09:08:14;101390.44;;;11.97;100.00
22333;BME280;11334;36.986;-121.936;2024-02-26T09:10:41;101384.59;;;11.93;100.00
22333;BME280;11334;36.986;-121.936;2024-02-26T09:13:07;101383.94;;;11.91;100.00
22333;BME280;11334;36.986;-121.936;2024-02-26T09:15:33;101388.94;;;11.94;100.00
22333;BME280;11334;36.986;-121.936;2024-02-26T09:18:00;101388.63;;;11.97;100.00
22333;BME280;11334;36.986;-121.936;2024-02-26T09:20:27;101379.84;;;11.97;100.00
22333;BME280;11334;36.986;-121.936;2024-02-26T09:22:53;101376.34;;;11.96;100.00
22333;BME280;11334;36.986;-121.936;2024-02-26T09:25:19;101371.47;;;11.92;100.00
22333;BME280;11334;36.986;-121.936;2024-02-26T09:27:46;101363.81;;;11.89;100.00
22333;BME280;11334;36.986;-121.936;2024-02-26T09:30:13;101371.88;;;11.97;100.00
22333;BME280;11334;36.986;-121.936;2024-02-26T09:32:40;101368.97;;;11.90;100.00
22333;BME280;11334;36.986;-121.936;2024-02-26T09:35:06;101355.94;;;11.97;100.00
22333;BME280;11334;36.986;-121.936;2024-02-26T09:37:33;101353.72;;;11.92;100.00
22333;BME280;11334;36.986;-121.936;2024-02-26T09:40:00;101363.81;;;11.89;100.00
22333;BME280;11334;36.986;-121.936;2024-02-26T09:42:26;101354.72;;;11.91;100.00
22333;BME280;11334;36.986;-121.936;2024-02-26T09:44:58;101351.38;;;11.89;100.00
22333;BME280;11334;36.986;-121.936;2024-02-26T09:47:31;101346.06;;;11.89;100.00
22333;BME280;11334;36.986;-121.936;2024-02-26T09:49:59;101345.06;;;11.90;100.00
22333;BME280;11334;36.986;-121.936;2024-02-26T09:52:28;101327.47;;;11.89;100.00
22333;BME280;11334;36.986;-121.936;2024-02-26T09:54:57;101315.66;;;11.84;100.00
22333;BME280;11334;36.986;-121.936;2024-02-26T09:57:23;101306.00;;;11.83;100.00
22333;BME280;11334;36.986;-121.936;2024-02-26T09:59:52;101321.22;;;11.81;100.00
22333;BME280;11334;36.986;-121.936;2024-02-26T10:02:20;101332.31;;;11.76;100.00
22333;BME280;11334;36.986;-121.936;2024-02-26T10:04:47;101337.31;;;11.79;100.00
22333;BME280;11334;36.986;-121.936;2024-02-26T10:07:16;101345.97;;;11.81;100.00
22333;BME280;11334;36.986;-121.936;2024-02-26T10:09:43;101334.69;;;11.79;100.00
22333;BME280;11334;36.986;-121.936;2024-02-26T10:12:11;101324.50;;;11.75;100.00
22333;BME280;11334;36.986;-121.936;2024-02-26T10:14:37;101317.53;;;11.74;100.00
22333;BME280;11334;36.986;-121.936;2024-02-26T10:17:07;101310.97;;;11.68;100.00
22333;BME280;11334;36.986;-121.936;2024-02-26T10:19:36;101320.63;;;11.69;100.00
22333;BME280;11334;36.986;-121.936;2024-02-26T10:22:03;101316.59;;;11.66;100.00
22333;BME280;11334;36.986;-121.936;2024-02-26T10:24:30;101322.91;;;11.65;100.00
22333;BME280;11334;36.986;-121.936;2024-02-26T10:26:57;101327.06;;;11.67;100.00
22333;BME280;11334;36.986;-121.936;2024-02-26T10:29:26;101333.22;;;11.68;100.00
22333;BME280;11334;36.986;-121.936;2024-02-26T10:31:53;101332.22;;;11.68;100.00
22333;BME280;11334;36.986;-121.936;2024-02-26T10:34:20;101330.56;;;11.68;100.00
22333;BME280;11334;36.986;-121.936;2024-02-26T10:36:46;101331.16;;;11.62;100.00
22333;BME280;11334;36.986;-121.936;2024-02-26T10:39:13;101337.31;;;11.62;100.00
22333;BME280;11334;36.986;-121.936;2024-02-26T10:41:43;101341.47;;;11.65;100.00
22333;BME280;11334;36.986;-121.936;2024-02-26T10:44:11;101330.56;;;11.68;100.00
22333;BME280;11334;36.986;-121.936;2024-02-26T10:46:40;101333.22;;;11.68;100.00
22333;BME280;11334;36.986;-121.936;2024-02-26T10:49:15;101330.69;;;11.66;100.00
22333;BME280;11334;36.986;-121.936;2024-02-26T10:51:48;101325.25;;;11.68;100.00
22333;BME280;11334;36.986;-121.936;2024-02-26T10:54:18;101313.72;;;11.59;100.00
22333;BME280;11334;36.986;-121.936;2024-02-26T10:56:46;101318.34;;;11.57;100.00
22333;BME280;11334;36.986;-121.936;2024-02-26T10:59:14;101314.16;;;11.55;100.00
22333;BME280;11334;36.986;-121.936;2024-02-26T11:01:48;101328.13;;;11.57;100.00
22333;BME280;11334;36.986;-121.936;2024-02-26T11:04:16;101331.34;;;11.51;100.00
22333;BME280;11334;36.986;-121.936;2024-02-26T11:06:44;101318.47;;;11.56;100.00
22333;BME280;11334;36.986;-121.936;2024-02-26T11:09:13;101308.28;;;11.51;100.00
22333;BME280;11334;36.986;-121.936;2024-02-26T11:11:40;101310.13;;;11.51;100.00
22333;BME280;11334;36.986;-121.936;2024-02-26T11:14:08;101321.88;;;11.48;100.00
22333;BME280;11334;36.986;-121.936;2024-02-26T11:16:35;101323.00;;;11.46;100.00
22333;BME280;11334;36.986;-121.936;2024-02-26T11:19:04;101316.94;;;11.53;100.00
22333;BME280;11334;36.986;-121.936;2024-02-26T11:21:32;101317.66;;;11.55;100.00
22333;BME280;11334;36.986;-121.936;2024-02-26T11:24:07;101333.69;;;11.54;100.00
22333;BME280;11334;36.986;-121.936;2024-02-26T11:26:38;101336.09;;;11.57;100.00
22333;BME280;11334;36.986;-121.936;2024-02-26T11:29:09;101324.91;;;11.53;100.00
22333;BME280;11334;36.986;-121.936;2024-02-26T11:31:39;101322.44;;;11.52;100.00
22333;BME280;11334;36.986;-121.936;2024-02-26T11:34:08;101332.34;;;11.50;100.00
22333;BME280;11334;36.986;-121.936;2024-02-26T11:36:36;101335.44;;;11.45;100.00
22333;BME280;11334;36.986;-121.936;2024-02-26T11:39:04;101336.13;;;11.47;100.00
22333;BME280;11334;36.986;-121.936;2024-02-26T11:41:31;101324.69;;;11.47;100.00
22333;BME280;11334;36.986;-121.936;2024-02-26T11:44:00;101324.97;;;11.44;100.00
22333;BME280;11334;36.986;-121.936;2024-02-26T11:46:28;101336.00;;;11.39;100.00
22333;BME280;11334;36.986;-121.936;2024-02-26T11:49:03;101330.25;;;11.44;100.00
22333;BME280;11334;36.986;-121.936;2024-02-26T11:51:34;101325.94;;;11.43;100.00
22333;BME280;11334;36.986;-121.936;2024-02-26T11:54:00;101336.56;;;11.34;100.00
22333;BME280;11334;36.986;-121.936;2024-02-26T11:56:27;101334.78;;;11.34;100.00
22333;BME280;11334;36.986;-121.936;2024-02-26T11:59:01;101327.25;;;11.30;100.00
22333;BME280;11334;36.986;-121.936;2024-02-26T12:01:48;101320.97;;;11.31;100.00
22333;BME280;11334;36.986;-121.936;2024-02-26T12:04:18;101313.00;;;11.31;100.00
22333;BME280;11334;36.986;-121.936;2024-02-26T12:06:48;101335.75;;;11.33;100.00
22333;BME280;11334;36.986;-121.936;2024-02-26T12:09:42;101330.31;;;11.35;100.00
22333;BME280;11334;36.986;-121.936;2024-02-26T12:12:10;101335.06;;;11.31;100.00
22333;BME280;11334;36.986;-121.936;2024-02-26T12:14:50;101343.59;;;11.25;100.00